createdAt,value
2017-12-01T00:02:02.212Z,99.90
2017-12-01T00:04:31.616Z,99.90
2017-12-01T00:07:01.050Z,99.90
2017-12-01T00:09:30.563Z,99.90
2017-12-01T00:11:59.981Z,99.90
2017-12-01T00:14:29.196Z,99.90
2017-12-01T00:16:59.744Z,99.90
2017-12-01T00:19:29.147Z,99.90
2017-12-01T00:21:58.556Z,99.90
2017-12-01T00:24:28.510Z,99.90
2017-12-01T00:26:57.912Z,99.90
2017-12-01T00:29:27.338Z,99.90
2017-12-01T00:31:57.897Z,99.90
2017-12-01T00:34:27.315Z,99.90
2017-12-01T00:36:56.718Z,99.90
2017-12-01T00:39:25.952Z,99.90
2017-12-01T00:41:55.049Z,99.90
2017-12-01T00:44:24.476Z,99.90
2017-12-01T00:46:53.911Z,99.90
2017-12-01T00:49:23.331Z,99.90
2017-12-01T00:51:52.741Z,99.90
2017-12-01T00:54:22.508Z,99.90
2017-12-01T00:56:52.129Z,99.90
2017-12-01T00:59:21.357Z,99.90
2017-12-01T01:01:50.937Z,99.90
2017-12-01T01:04:20.349Z,99.90
2017-12-01T01:06:49.750Z,99.90
2017-12-01T01:09:18.975Z,99.90
2017-12-01T01:11:48.383Z,99.90
2017-12-01T01:14:18.571Z,99.90
2017-12-01T01:16:47.985Z,99.90
2017-12-01T01:19:17.213Z,99.90
2017-12-01T01:21:46.323Z,99.90
2017-12-01T01:24:14.860Z,99.90
2017-12-01T01:26:44.116Z,99.90
2017-12-01T01:29:13.520Z,99.90
2017-12-01T01:31:42.943Z,99.90
2017-12-01T01:34:12.374Z,99.90
2017-12-01T01:36:42.356Z,99.90
2017-12-01T01:39:11.813Z,99.90
2017-12-01T01:41:40.916Z,99.90
2017-12-01T01:44:09.915Z,99.90
2017-12-01T01:46:38.645Z,99.90
2017-12-01T01:49:07.393Z,99.90
2017-12-01T01:51:36.148Z,99.90
2017-12-01T01:54:05.358Z,99.90
2017-12-01T01:56:34.436Z,99.90
2017-12-01T01:59:03.197Z,99.90
2017-12-01T02:01:32.200Z,99.90
2017-12-01T02:04:01.719Z,99.90
2017-12-01T02:06:30.275Z,99.90
2017-12-01T02:08:59.136Z,99.90
2017-12-01T02:11:27.881Z,99.90
2017-12-01T02:13:56.812Z,99.90
2017-12-01T02:16:26.011Z,99.90
2017-12-01T02:18:54.559Z,99.90
2017-12-01T02:21:23.316Z,99.90
2017-12-01T02:23:52.325Z,99.90
2017-12-01T02:26:20.880Z,99.90
2017-12-01T02:28:50.408Z,99.90
2017-12-01T02:31:19.177Z,99.90
2017-12-01T02:33:47.739Z,99.90
2017-12-01T02:36:17.056Z,99.90
2017-12-01T02:38:46.476Z,99.90
2017-12-01T02:41:15.045Z,99.90
2017-12-01T02:43:44.373Z,99.90
2017-12-01T02:46:13.165Z,99.90
2017-12-01T02:48:41.717Z,99.90
2017-12-01T02:51:10.280Z,99.90
2017-12-01T02:53:40.021Z,99.90
2017-12-01T02:56:08.577Z,99.90
2017-12-01T02:58:37.909Z,99.90
2017-12-01T03:01:06.563Z,99.90
2017-12-01T03:03:35.132Z,99.90
2017-12-01T03:06:04.789Z,99.90
2017-12-01T03:08:33.961Z,99.90
2017-12-01T03:11:02.720Z,99.90
2017-12-01T03:13:32.036Z,99.90
2017-12-01T03:16:00.735Z,99.90
2017-12-01T03:18:29.297Z,99.90
2017-12-01T03:20:58.631Z,99.90
2017-12-01T03:23:27.604Z,99.90
2017-12-01T03:25:56.184Z,99.90
2017-12-01T03:28:24.756Z,99.90
2017-12-01T03:30:53.826Z,99.90
2017-12-01T03:33:23.159Z,99.90
2017-12-01T03:35:51.716Z,99.90
2017-12-01T03:38:21.061Z,99.90
2017-12-01T03:40:49.622Z,99.90
2017-12-01T03:43:18.172Z,99.90
2017-12-01T03:45:47.522Z,99.90
2017-12-01T03:48:16.084Z,99.90
2017-12-01T03:50:44.648Z,99.90
2017-12-01T03:53:13.371Z,99.90
2017-12-01T03:55:41.928Z,99.90
2017-12-01T03:58:10.493Z,99.90
2017-12-01T04:00:39.520Z,99.90
2017-12-01T04:03:08.300Z,99.90
2017-12-01T04:05:37.056Z,99.90
2017-12-01T04:08:06.170Z,99.90
2017-12-01T04:10:34.720Z,99.90
2017-12-01T04:13:04.050Z,99.90
2017-12-01T04:15:32.838Z,99.90
2017-12-01T04:18:01.584Z,99.90
2017-12-01T04:20:30.904Z,99.90
2017-12-01T04:22:59.616Z,99.90
2017-12-01T04:25:28.175Z,99.90
2017-12-01T04:27:56.724Z,99.90
2017-12-01T04:30:25.799Z,99.90
2017-12-01T04:32:54.344Z,99.90
2017-12-01T04:35:23.104Z,99.90
2017-12-01T04:37:52.859Z,99.90
2017-12-01T04:40:21.405Z,99.90
2017-12-01T04:42:50.157Z,99.90
2017-12-01T04:45:18.995Z,99.90
2017-12-01T04:47:47.749Z,99.90
2017-12-01T04:50:17.059Z,99.90
2017-12-01T04:52:46.517Z,99.90
2017-12-01T04:55:15.090Z,99.90
2017-12-01T04:57:43.629Z,99.90
2017-12-01T05:00:12.337Z,99.90
2017-12-01T05:02:40.886Z,99.90
2017-12-01T05:05:10.392Z,99.90
2017-12-01T05:07:39.044Z,99.90
2017-12-01T05:10:07.593Z,99.90
2017-12-01T05:12:36.136Z,99.90
2017-12-01T05:15:04.945Z,99.90
2017-12-01T05:17:33.496Z,99.90
2017-12-01T05:20:02.835Z,99.90
2017-12-01T05:22:31.605Z,99.90
2017-12-01T05:25:00.360Z,99.90
2017-12-01T05:27:29.672Z,99.90
2017-12-01T05:29:59.193Z,99.90
2017-12-01T05:32:27.736Z,99.90
2017-12-01T05:34:56.290Z,99.90
2017-12-01T05:37:25.349Z,99.90
2017-12-01T05:39:53.908Z,99.90
2017-12-01T05:42:23.229Z,99.90
2017-12-01T05:44:51.788Z,99.90
2017-12-01T05:47:21.109Z,99.90
2017-12-01T05:49:49.669Z,99.90
2017-12-01T05:52:19.192Z,99.90
2017-12-01T05:54:47.741Z,99.90
2017-12-01T05:57:17.466Z,99.90
2017-12-01T05:59:46.312Z,99.90
2017-12-01T06:02:14.860Z,99.90
2017-12-01T06:04:43.605Z,99.90
2017-12-01T06:07:13.241Z,99.90
2017-12-01T06:09:41.780Z,99.90
2017-12-01T06:12:11.357Z,99.90
2017-12-01T06:14:40.127Z,99.90
2017-12-01T06:17:08.661Z,99.90
2017-12-01T06:19:37.990Z,99.90
2017-12-01T06:22:07.803Z,99.90
2017-12-01T06:24:36.409Z,99.90
2017-12-01T06:27:04.928Z,99.90
2017-12-01T06:29:34.402Z,99.90
2017-12-01T06:32:02.969Z,99.90
2017-12-01T06:34:31.501Z,99.90
2017-12-01T06:37:01.381Z,99.90
2017-12-01T06:39:29.901Z,99.90
2017-12-01T06:41:59.244Z,99.90
2017-12-01T06:44:28.124Z,99.90
2017-12-01T06:46:56.765Z,99.90
2017-12-01T06:49:26.080Z,99.90
2017-12-01T06:51:54.997Z,99.90
2017-12-01T06:54:23.566Z,99.90
2017-12-01T06:56:53.741Z,99.90
2017-12-01T06:59:23.329Z,99.90
2017-12-01T07:01:52.072Z,99.90
2017-12-01T07:04:20.825Z,99.90
2017-12-01T07:06:50.772Z,99.90
2017-12-01T07:09:19.351Z,99.90
2017-12-01T07:11:48.782Z,99.90
2017-12-01T07:14:18.347Z,99.90
2017-12-01T07:16:47.760Z,99.90
2017-12-01T07:19:17.184Z,99.90
2017-12-01T07:21:46.873Z,99.90
2017-12-01T07:24:16.113Z,99.90
2017-12-01T07:26:56.780Z,99.90
2017-12-01T07:29:26.008Z,99.90
2017-12-01T07:31:56.210Z,99.90
2017-12-01T07:34:25.625Z,99.90
2017-12-01T07:36:55.853Z,99.90
2017-12-01T07:39:25.850Z,99.90
2017-12-01T07:41:55.088Z,99.90
2017-12-01T07:44:39.204Z,99.90
2017-12-01T07:47:09.440Z,99.90
2017-12-01T07:49:38.662Z,99.90
2017-12-01T07:52:07.553Z,99.90
2017-12-01T07:54:37.241Z,99.90
2017-12-01T07:57:06.465Z,99.90
2017-12-01T07:59:35.731Z,99.90
2017-12-01T08:02:05.105Z,99.90
2017-12-01T08:04:34.316Z,99.90
2017-12-01T08:07:03.969Z,99.90
2017-12-01T08:09:33.209Z,99.90
2017-12-01T08:12:03.196Z,99.90
2017-12-01T08:14:32.444Z,99.90
2017-12-01T08:17:12.854Z,99.90
2017-12-01T08:19:42.314Z,99.90
2017-12-01T08:25:23.576Z,99.90
2017-12-01T08:27:55.600Z,99.90
2017-12-01T08:30:28.832Z,99.90
2017-12-01T08:32:58.546Z,99.90
2017-12-01T08:35:29.113Z,99.90
2017-12-01T08:38:00.969Z,99.90
2017-12-01T08:40:30.665Z,99.90
2017-12-01T08:42:59.919Z,99.90
2017-12-01T08:45:29.368Z,99.90
2017-12-01T08:47:59.372Z,99.90
2017-12-01T08:50:28.475Z,99.90
2017-12-01T08:52:57.915Z,99.90
2017-12-01T08:55:28.776Z,99.90
2017-12-01T08:57:58.731Z,99.90
2017-12-01T09:00:28.420Z,99.90
2017-12-01T09:02:57.876Z,99.90
2017-12-01T09:05:27.394Z,99.90
2017-12-01T09:07:56.638Z,99.90
2017-12-01T09:10:27.395Z,99.90
2017-12-01T09:12:58.232Z,99.90
2017-12-01T09:15:27.800Z,99.90
2017-12-01T09:17:57.839Z,99.90
2017-12-01T09:20:28.048Z,99.90
2017-12-01T09:22:57.523Z,99.90
2017-12-01T09:25:26.964Z,99.90
2017-12-01T09:27:56.878Z,99.90
2017-12-01T09:30:26.296Z,99.90
2017-12-01T09:32:55.198Z,99.90
2017-12-01T09:35:26.134Z,99.90
2017-12-01T09:37:55.886Z,99.90
2017-12-01T09:40:25.514Z,99.90
2017-12-01T09:42:55.405Z,99.90
2017-12-01T09:45:24.178Z,99.90
2017-12-01T09:47:55.297Z,99.90
2017-12-01T09:50:25.645Z,99.90
2017-12-01T09:52:55.093Z,99.90
2017-12-01T09:55:27.177Z,99.90
2017-12-01T09:57:58.508Z,99.90
2017-12-01T10:00:29.720Z,99.90
2017-12-01T10:03:02.653Z,99.90
2017-12-01T10:05:33.658Z,99.90
2017-12-01T10:08:05.515Z,99.90
2017-12-01T10:10:36.222Z,99.70
2017-12-01T10:13:05.693Z,99.70
2017-12-01T10:15:35.137Z,99.90
2017-12-01T10:18:04.243Z,99.90
2017-12-01T10:20:35.313Z,99.90
2017-12-01T10:23:04.980Z,99.90
2017-12-01T10:25:34.316Z,99.90
2017-12-01T10:28:04.859Z,99.90
2017-12-01T10:30:35.266Z,99.90
2017-12-01T10:33:04.732Z,99.90
2017-12-01T10:35:37.593Z,99.90
2017-12-01T10:38:07.209Z,99.90
2017-12-01T10:40:36.659Z,99.10
2017-12-01T10:43:06.853Z,99.00
2017-12-01T10:45:37.074Z,98.60
2017-12-01T10:48:06.537Z,98.60
2017-12-01T10:50:35.980Z,98.80
2017-12-01T10:53:05.797Z,98.80
2017-12-01T10:55:35.316Z,99.00
2017-12-01T10:58:04.532Z,99.00
2017-12-01T11:00:33.828Z,99.10
2017-12-01T11:03:03.064Z,99.00
2017-12-01T11:05:34.375Z,99.10
2017-12-01T11:08:04.444Z,98.60
2017-12-01T11:10:34.851Z,97.60
2017-12-01T11:13:05.411Z,98.00
2017-12-01T11:15:34.849Z,98.00
2017-12-01T11:18:04.275Z,97.90
2017-12-01T11:20:33.977Z,97.70
2017-12-01T11:23:03.474Z,98.00
2017-12-01T11:25:33.227Z,98.00
2017-12-01T11:28:06.935Z,97.80
2017-12-01T11:30:39.389Z,97.70
2017-12-01T11:33:09.584Z,97.60
2017-12-01T11:35:39.028Z,97.60
2017-12-01T11:38:09.324Z,96.50
2017-12-01T11:40:43.187Z,96.50
2017-12-01T11:43:13.156Z,96.10
2017-12-01T11:45:42.951Z,96.30
2017-12-01T11:48:12.387Z,95.70
2017-12-01T11:50:46.133Z,95.60
2017-12-01T11:53:19.676Z,95.70
2017-12-01T11:55:50.080Z,95.70
2017-12-01T11:58:21.800Z,95.10
2017-12-01T12:00:50.755Z,95.20
2017-12-01T12:03:19.665Z,95.20
2017-12-01T12:05:48.777Z,94.80
2017-12-01T12:08:19.892Z,95.40
2017-12-01T12:10:49.321Z,95.40
2017-12-01T12:13:18.107Z,95.10
2017-12-01T12:15:49.819Z,95.30
2017-12-01T12:18:20.287Z,94.90
2017-12-01T12:20:52.748Z,95.00
2017-12-01T12:23:22.660Z,95.00
2017-12-01T12:25:51.771Z,94.70
2017-12-01T12:28:20.555Z,94.80
2017-12-01T12:30:49.138Z,94.70
2017-12-01T12:33:18.459Z,94.50
2017-12-01T12:35:50.146Z,94.40
2017-12-01T12:38:20.060Z,94.60
2017-12-01T12:40:48.837Z,93.60
2017-12-01T12:43:17.642Z,93.30
2017-12-01T12:45:46.757Z,93.70
2017-12-01T12:48:17.172Z,93.50
2017-12-01T12:50:48.814Z,93.10
2017-12-01T12:53:18.657Z,93.60
2017-12-01T12:55:48.154Z,93.60
2017-12-01T12:58:19.220Z,93.90
2017-12-01T13:00:51.950Z,94.00
2017-12-01T13:03:22.470Z,94.00
2017-12-01T13:05:51.685Z,94.00
2017-12-01T13:08:22.770Z,93.20
2017-12-01T13:10:51.629Z,93.70
2017-12-01T13:13:20.570Z,93.70
2017-12-01T13:15:51.315Z,93.40
2017-12-01T13:18:22.801Z,93.60
2017-12-01T13:20:52.156Z,93.40
2017-12-01T13:23:22.485Z,93.90
2017-12-01T13:25:53.621Z,93.80
2017-12-01T13:28:23.602Z,93.80
2017-12-01T13:30:52.367Z,93.50
2017-12-01T13:33:28.169Z,93.70
2017-12-01T13:36:01.388Z,93.60
2017-12-01T13:38:30.877Z,93.80
2017-12-01T13:41:00.000Z,94.10
2017-12-01T13:43:29.599Z,94.20
2017-12-01T13:45:58.359Z,94.20
2017-12-01T13:48:27.534Z,93.70
2017-12-01T13:50:57.772Z,94.10
2017-12-01T13:53:26.581Z,94.00
2017-12-01T13:55:55.511Z,93.40
2017-12-01T13:58:28.073Z,93.70
2017-12-01T14:00:58.090Z,93.60
2017-12-01T14:03:28.991Z,93.60
2017-12-01T14:05:58.616Z,93.80
2017-12-01T14:08:28.915Z,93.40
2017-12-01T14:10:59.357Z,93.40
2017-12-01T14:13:31.571Z,93.20
2017-12-01T14:16:02.372Z,93.80
2017-12-01T14:18:33.424Z,93.80
2017-12-01T14:21:02.883Z,94.20
2017-12-01T14:23:37.072Z,94.60
2017-12-01T14:26:07.252Z,94.90
2017-12-01T14:28:39.609Z,95.50
2017-12-01T14:31:09.913Z,95.50
2017-12-01T14:33:40.435Z,96.10
2017-12-01T14:36:10.754Z,96.10
2017-12-01T14:38:40.656Z,96.50
2017-12-01T14:41:10.100Z,96.40
2017-12-01T14:43:39.759Z,96.70
2017-12-01T14:46:09.581Z,96.90
2017-12-01T14:48:39.375Z,97.20
2017-12-01T14:51:08.900Z,97.60
2017-12-01T14:53:38.657Z,97.60
2017-12-01T14:56:08.261Z,97.80
2017-12-01T14:58:38.213Z,97.90
2017-12-01T15:01:16.123Z,98.20
2017-12-01T15:03:46.312Z,98.30
2017-12-01T15:06:15.909Z,98.50
2017-12-01T15:08:46.116Z,98.90
2017-12-01T15:11:16.394Z,98.90
2017-12-01T15:13:47.279Z,98.70
2017-12-01T15:16:16.732Z,98.70
2017-12-01T15:18:46.164Z,98.70
2017-12-01T15:21:16.113Z,99.00
2017-12-01T15:23:45.556Z,98.70
2017-12-01T15:26:15.322Z,98.70
2017-12-01T15:28:45.192Z,98.60
2017-12-01T15:31:14.656Z,98.80
2017-12-01T15:33:44.103Z,98.90
2017-12-01T15:36:14.865Z,99.00
2017-12-01T15:38:44.020Z,99.00
2017-12-01T15:41:12.944Z,98.90
2017-12-01T15:43:42.823Z,99.20
2017-12-01T15:46:12.289Z,99.40
2017-12-01T15:48:44.465Z,99.40
2017-12-01T15:51:17.157Z,99.70
2017-12-01T15:53:49.966Z,99.40
2017-12-01T15:56:22.342Z,99.60
2017-12-01T15:58:54.956Z,99.40
2017-12-01T16:01:26.886Z,99.10
2017-12-01T16:03:56.650Z,99.10
2017-12-01T16:06:25.211Z,99.10
2017-12-01T16:08:55.209Z,99.30
2017-12-01T16:11:24.323Z,99.30
2017-12-01T16:13:53.104Z,99.50
2017-12-01T16:16:22.759Z,99.60
2017-12-01T16:18:51.353Z,99.90
2017-12-01T16:21:21.439Z,99.90
2017-12-01T16:23:51.306Z,99.90
2017-12-01T16:26:21.874Z,99.90
2017-12-01T16:28:52.980Z,99.90
2017-12-01T16:31:22.103Z,99.90
2017-12-01T16:33:50.920Z,99.90
2017-12-01T16:36:20.172Z,99.90
2017-12-01T16:38:48.960Z,99.90
2017-12-01T16:41:18.408Z,99.90
2017-12-01T16:43:48.202Z,99.90
2017-12-01T16:46:17.714Z,99.90
2017-12-01T16:48:47.920Z,99.90
2017-12-01T16:51:16.830Z,99.90
2017-12-01T16:53:45.615Z,99.90
2017-12-01T16:56:14.375Z,99.90
2017-12-01T16:58:47.505Z,99.90
2017-12-01T17:01:22.609Z,99.90
2017-12-01T17:03:52.567Z,99.90
2017-12-01T17:06:20.960Z,99.90
2017-12-01T17:08:49.576Z,99.90
2017-12-01T17:14:06.780Z,99.90
2017-12-01T17:16:35.709Z,99.90
2017-12-01T17:19:04.493Z,99.90
2017-12-01T17:21:33.151Z,99.90
2017-12-01T17:24:02.519Z,99.90
2017-12-01T17:26:32.373Z,99.90
2017-12-01T17:29:01.278Z,99.90
2017-12-01T17:31:30.384Z,99.90
2017-12-01T17:33:59.192Z,99.90
2017-12-01T17:36:28.320Z,99.90
2017-12-01T17:38:57.979Z,99.90
2017-12-01T17:41:29.600Z,99.90
2017-12-01T17:44:00.493Z,99.90
2017-12-01T17:46:30.223Z,99.90
2017-12-01T17:48:59.039Z,99.90
2017-12-01T17:51:27.847Z,99.90
2017-12-01T17:53:58.054Z,99.90
2017-12-01T17:56:26.994Z,99.90
2017-12-01T17:58:55.765Z,99.90
2017-12-01T18:01:24.468Z,99.90
2017-12-01T18:03:53.237Z,99.90
2017-12-01T18:06:22.394Z,99.90
2017-12-01T18:08:51.498Z,99.90
2017-12-01T18:11:20.704Z,99.90
2017-12-01T18:13:50.850Z,99.90
2017-12-01T18:16:19.835Z,99.90
2017-12-01T18:18:49.536Z,99.90
2017-12-01T18:21:19.166Z,99.90
2017-12-01T18:23:49.611Z,99.90
2017-12-01T18:26:18.664Z,99.90
2017-12-01T18:28:47.454Z,99.90
2017-12-01T18:31:17.734Z,99.90
2017-12-01T18:33:47.064Z,99.90
2017-12-01T18:36:16.181Z,99.90
2017-12-01T18:38:47.246Z,99.90
2017-12-01T18:41:16.600Z,99.90
2017-12-01T18:43:46.684Z,99.90
2017-12-01T18:46:15.493Z,99.90
2017-12-01T18:48:52.231Z,99.90
2017-12-01T18:51:27.916Z,99.90
2017-12-01T18:53:56.480Z,99.90
2017-12-01T18:56:26.060Z,99.90
2017-12-01T18:58:58.007Z,99.90
2017-12-01T19:01:27.890Z,99.90
2017-12-01T19:03:59.121Z,99.90
2017-12-01T19:06:29.004Z,99.90
2017-12-01T19:09:00.871Z,99.90
2017-12-01T19:11:35.070Z,99.90
2017-12-01T19:14:07.225Z,99.90
2017-12-01T19:16:36.535Z,99.90
2017-12-01T19:19:05.702Z,99.90
2017-12-01T19:21:37.587Z,99.90
2017-12-01T19:24:06.550Z,99.90
2017-12-01T19:26:39.710Z,99.90
2017-12-01T19:29:08.976Z,99.90
2017-12-01T19:31:38.591Z,99.90
2017-12-01T19:34:07.380Z,99.90
2017-12-01T19:36:36.525Z,99.90
2017-12-01T19:39:06.271Z,99.90
2017-12-01T19:41:34.843Z,99.90
2017-12-01T19:44:05.865Z,99.90
2017-12-01T19:46:35.563Z,99.90
2017-12-01T19:49:05.736Z,99.90
2017-12-01T19:51:35.541Z,99.90
2017-12-01T19:54:04.414Z,99.90
2017-12-01T19:56:34.172Z,99.90
2017-12-01T19:59:07.746Z,99.90
2017-12-01T20:01:37.691Z,99.90
2017-12-01T20:04:07.272Z,99.90
2017-12-01T20:06:36.729Z,99.90
2017-12-01T20:09:05.606Z,99.90
2017-12-01T20:11:37.185Z,99.90
2017-12-01T20:14:06.772Z,99.90
2017-12-01T20:16:36.356Z,99.90
2017-12-01T20:19:06.130Z,99.90
2017-12-01T20:21:35.811Z,99.90
2017-12-01T20:24:04.650Z,99.90
2017-12-01T20:26:34.119Z,99.90
2017-12-01T20:29:04.009Z,99.90
2017-12-01T20:31:33.757Z,99.90
2017-12-01T20:34:02.545Z,99.90
2017-12-01T20:36:31.734Z,99.90
2017-12-01T20:39:00.437Z,99.90
2017-12-01T20:41:29.232Z,99.90
2017-12-01T20:43:58.795Z,99.90
2017-12-01T20:46:27.624Z,99.90
2017-12-01T20:48:56.458Z,99.90
2017-12-01T20:51:25.351Z,99.90
2017-12-01T20:53:54.153Z,99.90
2017-12-01T20:56:23.602Z,99.90
2017-12-01T20:58:52.780Z,99.90
2017-12-01T21:01:22.373Z,99.90
2017-12-01T21:03:51.176Z,99.90
2017-12-01T21:06:19.901Z,99.90
2017-12-01T21:08:48.676Z,99.90
2017-12-01T21:11:17.469Z,99.90
2017-12-01T21:13:46.671Z,99.90
2017-12-01T21:16:16.216Z,99.90
2017-12-01T21:18:45.010Z,99.90
2017-12-01T21:21:14.573Z,99.90
2017-12-01T21:23:43.470Z,99.90
2017-12-01T21:26:12.639Z,99.90
2017-12-01T21:28:43.279Z,99.90
2017-12-01T21:31:12.936Z,99.90
2017-12-01T21:33:42.598Z,99.90
2017-12-01T21:36:11.709Z,99.90
2017-12-01T21:38:43.758Z,99.90
2017-12-01T21:41:12.900Z,99.90
2017-12-01T21:43:42.788Z,99.90
2017-12-01T21:46:14.951Z,99.90
2017-12-01T21:48:47.000Z,99.90
2017-12-01T21:51:16.478Z,99.90
2017-12-01T21:53:45.948Z,99.90
2017-12-01T21:56:15.231Z,99.90
2017-12-01T21:58:44.495Z,99.90
2017-12-01T22:01:15.771Z,99.90
2017-12-01T22:03:45.748Z,99.90
2017-12-01T22:06:14.830Z,99.90
2017-12-01T22:08:44.555Z,99.90
2017-12-01T22:11:14.159Z,99.90
2017-12-01T22:13:46.175Z,99.90
2017-12-01T22:16:15.958Z,99.90
2017-12-01T22:18:45.268Z,99.90
2017-12-01T22:21:14.572Z,99.90
2017-12-01T22:23:44.119Z,99.90
2017-12-01T22:26:14.769Z,99.90
2017-12-01T22:28:44.112Z,99.90
2017-12-01T22:31:14.016Z,99.90
2017-12-01T22:33:45.033Z,99.90
2017-12-01T22:36:14.799Z,99.90
2017-12-01T22:38:44.276Z,99.90
2017-12-01T22:41:13.524Z,99.90
2017-12-01T22:43:43.220Z,99.90
2017-12-01T22:46:12.805Z,99.90
2017-12-01T22:48:42.065Z,99.90
2017-12-01T22:51:12.047Z,99.90
2017-12-01T22:53:41.849Z,99.90
2017-12-01T22:56:14.490Z,99.90
2017-12-01T22:58:49.675Z,99.90
2017-12-01T23:01:20.580Z,99.90
2017-12-01T23:03:51.082Z,99.90
2017-12-01T23:06:20.724Z,99.90
2017-12-01T23:08:50.245Z,99.90
2017-12-01T23:11:23.846Z,99.90
2017-12-01T23:13:55.200Z,99.90
2017-12-01T23:16:26.868Z,99.90
2017-12-01T23:18:58.484Z,99.90
2017-12-01T23:21:28.732Z,99.90
2017-12-01T23:23:58.192Z,99.90
2017-12-01T23:26:27.661Z,99.90
2017-12-01T23:28:57.910Z,99.90
2017-12-01T23:31:28.369Z,99.90
2017-12-01T23:33:57.932Z,99.90
2017-12-01T23:36:27.405Z,99.90
2017-12-01T23:38:56.861Z,99.90
2017-12-01T23:41:28.578Z,99.90
2017-12-01T23:43:59.676Z,99.90
2017-12-01T23:46:29.159Z,99.90
2017-12-01T23:48:58.469Z,99.90
2017-12-01T23:51:28.704Z,99.90
2017-12-01T23:53:58.208Z,99.90
2017-12-01T23:56:27.802Z,99.90
2017-12-01T23:58:56.934Z,99.90
